Tuesday, January 16, 2018, 12:30 PM EST
Back to Local

KBML, Berlin Municipal Airport

Location: Milan, NH, United States Lat: 44.583
Local Time: 12:30 PM EST (17:30 GMT) Lon: -71.183
Time Zone: US/Eastern Elev: 1158 ft

Show me the last for .
Show Decoded

2018-01-16 11:59 METAR KBML 161659Z AUTO 00000KT 3SM -SN BKN033 OVC040 M07/M11 A3035 RMK AO2
                 P0000 T10721111 =
2018-01-16 11:52 METAR KBML 161652Z AUTO 00000KT 3SM -SN BKN029 OVC037 M08/M11 A3036 RMK AO2
                 SNB25 SLP306 P0000 T10781111 =
2018-01-16 11:13 METAR KBML 161613Z AUTO 00000KT 10SM OVC029 M09/M13 A3038 RMK AO2 T10891128 =
2018-01-16 10:52 METAR KBML 161552Z AUTO 00000KT 10SM OVC030 M10/M13 A3040 RMK AO2 SNE05 SLP321
                 P0000 T11001128 =
2018-01-16 10:03 METAR KBML 161503Z AUTO 00000KT 4SM -SN BR OVC031 M12/M14 A3040 RMK AO2 P0000
                 T11171139 =
2018-01-16 09:52 METAR KBML 161452Z AUTO 00000KT 2 1/2SM -SN BR OVC032 M12/M14 A3040 RMK AO2
                 SNB1359 SLP323 P0000 60000 T11171139 58002 =
2018-01-16 09:31 METAR KBML 161431Z AUTO 00000KT 3SM -SN BR OVC034 M13/M14 A3041 RMK AO2 SNB1359
                 P0000 T11281144 =
2018-01-16 09:15 METAR KBML 161415Z AUTO 00000KT 2 1/2SM -SN BR OVC034 M13/M16 A3041 RMK AO2
                 SNB1359 P0000 T11331156 =
2018-01-16 08:52 METAR KBML 161352Z AUTO 00000KT 4SM BR OVC034 M14/M16 A3041 RMK AO2 SNE1253
                 SLP328 P0000 T11391161 =
2018-01-16 07:52 METAR KBML 161252Z AUTO 00000KT 4SM -SN BR OVC036 M16/M17 A3041 RMK AO2 SNB29
                 SLP329 P0000 T11561172 =
2018-01-16 06:52 METAR KBML 161152Z AUTO 00000KT 9SM BKN055 BKN070 OVC085 M15/M17 A3040 RMK AO2
                 SLP328 T11501172 11144 21172 57002 =
2018-01-16 05:52 METAR KBML 161052Z AUTO 00000KT 10SM FEW120 M15/M17 A3041 RMK AO2 SLP329
                 T11501172 =
2018-01-16 04:52 METAR KBML 160952Z AUTO 00000KT 10SM SCT080 OVC100 M16/M17 A3041 RMK AO2 SLP328
                 T11561172 =
2018-01-16 03:52 METAR KBML 160852Z AUTO 20003KT 10SM FEW075 SCT110 M16/M18 A3041 RMK AO2 SLP327
                 T11611178 58010 =
2018-01-16 02:52 METAR KBML 160752Z AUTO 00000KT 10SM BKN110 M17/M19 A3044 RMK AO2 SLP336
                 T11671189 =
2018-01-16 01:52 METAR KBML 160652Z AUTO 00000KT 10SM CLR M16/M18 A3045 RMK AO2 SLP340 T11611183
                 =
2018-01-16 01:08 METAR KBML 160608Z AUTO 00000KT 10SM SCT027 M15/M17 A3044 RMK AO2 T11501172 =
2018-01-16 00:52 METAR KBML 160552Z AUTO 00000KT 10SM BKN027 M14/M16 A3044 RMK AO2 SLP337 60000
                 I6000 T11441161 11128 21161 58022 =
2018-01-15 23:52 METAR KBML 160452Z AUTO 00000KT 10SM OVC027 M13/M15 A3047 RMK AO2 SLP346
                 T11281150 410891267 =
2018-01-15 22:52 METAR KBML 160352Z AUTO 00000KT 10SM OVC028 M13/M15 A3050 RMK AO2 SLP359
                 T11331150 =
2018-01-15 21:52 METAR KBML 160252Z AUTO 00000KT 9SM OVC029 M13/M16 A3051 RMK AO2 SNB06E15 SLP363
                 P0000 60000 I3000 T11331156 56016 =
2018-01-15 20:52 METAR KBML 160152Z AUTO 00000KT 10SM OVC028 M14/M17 A3052 RMK AO2 SLP369
                 T11441167 =
2018-01-15 19:52 METAR KBML 160052Z AUTO 00000KT 10SM OVC026 M16/M17 A3054 RMK AO2 SLP377 I1000
                 T11561172 =
2018-01-15 18:52 METAR KBML 152352Z AUTO 00000KT 10SM OVC025 M16/M18 A3055 RMK AO2 SLP384
                 T11611183 11089 21172 58004 =
2018-01-15 18:26 METAR KBML 152326Z AUTO 00000KT 10SM BKN024 M16/M19 A3056 RMK AO2 T11611189 =
2018-01-15 17:52 METAR KBML 152252Z AUTO 00000KT 10SM CLR M17/M19 A3057 RMK AO2 SLP391 T11671194
                 =
2018-01-15 16:52 METAR KBML 152152Z AUTO 00000KT 10SM CLR M14/M17 A3058 RMK AO2 SLP392 T11441167
                 =
2018-01-15 15:52 METAR KBML 152052Z AUTO 00000KT 10SM CLR M09/M16 A3057 RMK AO2 SLP386 T10941161
                 56013 =
2018-01-15 14:52 METAR KBML 151952Z AUTO 00000KT 10SM CLR M09/M16 A3058 RMK AO2 SLP390 T10891161
                 =
2018-01-15 13:52 METAR KBML 151852Z AUTO 00000KT 10SM CLR M09/M16 A3059 RMK AO2 SLP394 T10941161
                 =
2018-01-15 12:52 METAR KBML 151752Z AUTO 36003KT 10SM CLR M11/M17 A3061 RMK AO2 SLP399 T11111172
                 11111 21239 57041 =

Support USWX by starting your Amazon purchase here.